AirNav   Everest Fuels
 
 1845 users online  

9NR7 Triple F Airpark
Salemburg, North Carolina, USA

GOING TO SALEMBURG?


FAA INFORMATION EFFECTIVE 18 JULY 2019

Location

FAA Identifier: 9NR7
Lat/Long: 35-01-06.0000N / 078-33-57.0000W
35-01.100000N / 078-33.950000W
35.0183333 / -78.5658333
(estimated)
Elevation: 148 ft. / 45 m (estimated)
From city: 4 miles W of SALEMBURG, NC
Time zone: UTC -4 (UTC -5 during Standard Time)
Zip code: 28318

Airport Operations

Airport use: Private use. Permission required prior to landing
Activation date: 10/2008
Control tower: no
ARTCC: WASHINGTON CENTER
FSS: RALEIGH FLIGHT SERVICE STATION
Attendance: UNATNDD
Wind indicator: yes
Segmented circle: no

Airport Communications

WX AWOS-3 at CTZ (10 nm E): 119.125 (910-592-7488)
WX ASOS at FAY (16 nm W): 121.25 (910-484-1546)

Nearby radio navigation aids

VOR radial/distance  VOR name  Freq  Var
FAYr087/15.3FAYETTEVILLE VOR/DME108.8004W

 
NDB name  Hdg/Dist  Freq  Var  ID
CLINTON294/10.441209WCTZ -.-. - --..
FORT BRAGG128/14.139307WFGP ..-. --. .--.
POPE130/22.833807WPOB .--. --- -...
HARNETT176/25.441708WHQT .... --.- -
ELIZABETHTOWN003/29.539808WTGQ - --. --.-
ROBESON053/34.435908WRSY .-. ... -.--

Airport Services

Runway Information

Runway 9/27

Dimensions: 2200 x 70 ft. / 671 x 21 m
Surface: turf
RUNWAY 9  RUNWAY 27
Traffic pattern: leftleft
Obstructions: 50 ft. trees, 200 ft. from runwaynone

Airport Ownership and Management from official FAA records

Ownership: Privately-owned
Owner: M. D. FAIRCLOTH
3455 AUTRYVILLE RD.
AUTRYVILLE, NC 28318
Phone 910-531-3826
Manager: FREDDIE HERRING
760 MURPHY RD.
CLINTON, NC 28328
Phone 910-990-6324

Airport Operational Statistics

Aircraft based on the field: 1
Single engine airplanes: 1
    

Additional Remarks

FOR CD CTC WASHINGTON ARTCC AT 703-771-3587.

Instrument Procedures

There are no published instrument procedures at 9NR7.

Some nearby airports with instrument procedures:

KCTZ - Clinton-Sampson County Airport (10 nm E)
KFAY - Fayetteville Regional Airport/Grannis Field (16 nm W)
KFBG - Simmons Army Airfield (19 nm W)
KHRJ - Harnett Regional Jetport Airport (23 nm N)
KPOB - Pope Army Airfield (24 nm NW)
 
Loc | Ops | Rwys | IFR | FBO | Links
Com | Nav | Svcs | Stats | Notes
Aerial photo
No photo
 
Sectional chart

 
Airport distance calculator
Flying to Triple F Airpark? Find the distance to fly.

From to 9NR7

Sunrise and sunset
Times for 18-Jul-2019
 Local
(UTC-4)
 Zulu
(UTC)
Morning civil twilight05:4609:46
Sunrise06:1410:14
Sunset20:2600:26
Evening civil twilight20:5500:55

Current date and time
Zulu (UTC)  18-Jul-2019 18:34:43
Local (UTC-4)  18-Jul-2019 14:34:43
 
METAR
KCTZ 
10nm E 
181755Z AUTO 23011G16KT 10SM CLR 34/24 A2998 RMK AO2 T03350235 10336 20271
KFAY 
16nm W 
181753Z 24007KT 220V280 10SM FEW047 34/23 A2996 RMK AO2 SLP138 T03440233 10344 20261 58011
KFBG 
18nm W 
181756Z AUTO 20008KT 10SM FEW200 33/23 A2996 RMK AO2 SLP145 T03340225 10339 20273 57010
TAF
KFAY 
16nm W 
181739Z 1818/1918 25011KT P6SM SCT250 TEMPO 1901/1904 VRB12G25KT 4SM TSRA BR BKN035CB FM190700 24005KT P6SM BKN100 BKN250 FM191600 24008KT P6SM SCT040 BKN150
KFBG 
18nm W 
181700Z 1817/1923 24009KT 9999 SCT040 SCT150 QNH2994INS BECMG 1820/1821 25012G18KT 8000 -SHRA VCTS SCT040CB QNH2990INS TEMPO 1822/1902 27015G30KT 3200 TSRA OVC020CB BECMG 1905/1906 24006KT 9999 NSW SCT030 QNH2997INS BECMG 1914/1915 25009KT 9999 FEW040 QNH2999INS BECMG 1918/1919 27009KT 9999 VCTS SCT040CB QNH2994INS TX36/1821Z TN25/1911Z
NOTAMs
Click for the latest NOTAMs
NOTAMs are issued by the DoD/FAA and will open in a separate window not controlled by AirNav.

 

 
 

Would you like to see your business listed on this page?

 If your business provides an interesting product or service to pilots, flight crews, aircraft, or users of the Triple F Airpark, you should consider listing it here.  To start the listing process, click on the button below
 
Add a business
 

Other Pages about Triple F Airpark

Update a link
 
Copyright © AirNav, LLC. All rights reserved. Privacy Policy  Contact